createdAt,value
2023-01-18T00:01:12.406Z,98198.44
2023-01-18T00:03:40.177Z,98197.88
2023-01-18T00:06:09.015Z,98204.25
2023-01-18T00:08:38.705Z,98201.03
2023-01-18T00:11:12.020Z,98198.38
2023-01-18T00:13:39.443Z,98216.13
2023-01-18T00:16:10.427Z,98214.72
2023-01-18T00:18:37.563Z,98229.00
2023-01-18T00:21:10.266Z,98224.69
2023-01-18T00:23:38.117Z,98212.63
2023-01-18T00:26:08.218Z,98211.91
2023-01-18T00:28:35.598Z,98212.88
2023-01-18T00:31:02.491Z,98218.38
2023-01-18T00:33:29.368Z,98205.47
2023-01-18T00:36:01.552Z,98217.94
2023-01-18T00:38:29.704Z,98223.34
2023-01-18T00:40:57.183Z,98225.97
2023-01-18T00:43:39.991Z,98213.91
2023-01-18T00:46:09.626Z,98224.69
2023-01-18T00:48:39.109Z,98229.25
2023-01-18T00:51:07.268Z,98215.63
2023-01-18T00:53:34.124Z,98225.19
2023-01-18T00:56:01.509Z,98224.50
2023-01-18T00:58:29.213Z,98229.75
2023-01-18T01:00:56.318Z,98233.34
2023-01-18T01:03:23.280Z,98245.94
2023-01-18T01:06:08.983Z,98251.31
2023-01-18T01:08:36.303Z,98259.34
2023-01-18T01:11:12.411Z,98260.31
2023-01-18T01:13:58.150Z,98256.22
2023-01-18T01:16:43.662Z,98260.75
2023-01-18T01:19:28.934Z,98274.75
2023-01-18T01:22:14.650Z,98268.66
2023-01-18T01:25:00.033Z,98273.22
2023-01-18T01:27:26.906Z,98267.38
2023-01-18T01:29:54.614Z,98276.78
2023-01-18T01:32:21.415Z,98283.03
2023-01-18T01:34:48.594Z,98285.66
2023-01-18T01:37:15.417Z,98315.44
2023-01-18T01:39:42.265Z,98309.59
2023-01-18T01:42:12.271Z,98313.16
2023-01-18T01:44:50.374Z,98309.84
2023-01-18T01:47:45.098Z,98319.66
2023-01-18T01:50:19.176Z,98338.06
2023-01-18T01:52:48.157Z,98344.41
2023-01-18T01:55:27.255Z,98353.00
2023-01-18T01:57:57.557Z,98364.59
2023-01-18T02:00:24.777Z,98360.19
2023-01-18T02:03:01.279Z,98374.41
2023-01-18T02:05:30.947Z,98373.44
2023-01-18T02:08:02.430Z,98373.69
2023-01-18T02:10:30.325Z,98387.69
2023-01-18T02:12:59.259Z,98393.69
2023-01-18T02:15:36.621Z,98389.22
2023-01-18T02:18:11.470Z,98399.88
2023-01-18T02:20:47.428Z,98400.72
2023-01-18T02:23:35.183Z,98413.03
2023-01-18T02:26:26.571Z,98412.91
2023-01-18T02:28:58.989Z,98401.56
2023-01-18T02:31:44.875Z,98412.78
2023-01-18T02:34:35.850Z,98419.00
2023-01-18T02:37:14.160Z,98419.72
2023-01-18T02:39:40.957Z,98422.34
2023-01-18T02:42:41.192Z,98433.69
2023-01-18T02:45:35.958Z,98437.19
2023-01-18T02:48:03.600Z,98431.19
2023-01-18T02:50:30.547Z,98440.50
2023-01-18T02:52:57.634Z,98429.16
2023-01-18T02:55:39.526Z,98433.59
2023-01-18T02:58:29.987Z,98424.72
2023-01-18T03:01:22.655Z,98434.16
2023-01-18T03:03:51.532Z,98443.03
2023-01-18T03:06:21.750Z,98444.81
2023-01-18T03:08:51.822Z,98461.31
2023-01-18T03:11:30.715Z,98450.94
2023-01-18T03:14:37.888Z,98458.81
2023-01-18T03:17:28.784Z,98465.16
2023-01-18T03:20:09.304Z,98465.97
2023-01-18T03:23:01.987Z,98467.78
2023-01-18T03:25:32.719Z,98471.22
2023-01-18T03:28:23.958Z,98482.03
2023-01-18T03:31:13.246Z,98489.78
2023-01-18T03:33:46.020Z,98484.75
2023-01-18T03:36:23.809Z,98490.72
2023-01-18T03:39:00.426Z,98494.19
2023-01-18T03:41:32.050Z,98507.34
2023-01-18T03:44:04.984Z,98514.41
2023-01-18T03:46:33.396Z,98522.06
2023-01-18T03:49:00.729Z,98525.66
2023-01-18T03:51:59.652Z,98531.63
2023-01-18T03:55:00.474Z,98538.59
2023-01-18T03:57:47.879Z,98546.34
2023-01-18T04:00:15.425Z,98554.09
2023-01-18T04:02:47.235Z,98548.03
2023-01-18T04:05:14.930Z,98560.09
2023-01-18T04:07:41.823Z,98565.38
2023-01-18T04:10:09.492Z,98563.81
2023-01-18T04:12:36.643Z,98580.31
2023-01-18T04:15:04.639Z,98582.94
2023-01-18T04:17:31.694Z,98582.94
2023-01-18T04:19:58.497Z,98584.00
2023-01-18T04:22:25.401Z,98598.72
2023-01-18T04:24:52.251Z,98594.31
2023-01-18T04:27:19.108Z,98597.75
2023-01-18T04:29:45.963Z,98596.81
2023-01-18T04:32:12.774Z,98613.19
2023-01-18T04:34:39.624Z,98602.69
2023-01-18T04:37:06.449Z,98604.47
2023-01-18T04:39:33.296Z,98607.94
2023-01-18T04:42:00.124Z,98620.06
2023-01-18T04:44:26.934Z,98616.56
2023-01-18T04:46:53.777Z,98627.72
2023-01-18T04:49:20.682Z,98623.41
2023-01-18T04:51:47.959Z,98631.06
2023-01-18T04:54:17.040Z,98641.59
2023-01-18T04:56:43.866Z,98634.41
2023-01-18T04:59:15.937Z,98640.50
2023-01-18T05:01:43.344Z,98657.13
2023-01-18T05:04:10.313Z,98656.31
2023-01-18T05:06:37.156Z,98664.91
2023-01-18T05:09:04.370Z,98662.41
2023-01-18T05:11:31.183Z,98663.97
2023-01-18T05:13:58.034Z,98670.88
2023-01-18T05:16:25.213Z,98666.59
2023-01-18T05:18:52.156Z,98669.09
2023-01-18T05:21:19.020Z,98680.47
2023-01-18T05:23:45.867Z,98687.41
2023-01-18T05:26:20.054Z,98686.44
2023-01-18T05:28:47.361Z,98686.44
2023-01-18T05:31:15.629Z,98694.09
2023-01-18T05:33:42.773Z,98695.78
2023-01-18T05:36:09.701Z,98693.88
2023-01-18T05:38:36.583Z,98708.47
2023-01-18T05:41:03.607Z,98700.34
2023-01-18T05:43:31.489Z,98707.19
2023-01-18T05:45:59.146Z,98697.03
2023-01-18T05:48:26.577Z,98708.75
2023-01-18T05:50:53.414Z,98702.16
2023-01-18T05:53:22.071Z,98708.06
2023-01-18T05:56:00.046Z,98698.22
2023-01-18T05:58:28.174Z,98716.03
2023-01-18T06:00:55.658Z,98716.03
2023-01-18T06:03:23.772Z,98716.41
2023-01-18T06:05:51.724Z,98730.19
2023-01-18T06:08:19.863Z,98728.41
2023-01-18T06:10:57.396Z,98733.44
2023-01-18T06:13:28.193Z,98743.47
2023-01-18T06:15:55.692Z,98737.50
2023-01-18T06:18:23.475Z,98748.50
2023-01-18T06:20:50.388Z,98738.69
2023-01-18T06:23:17.183Z,98742.28
2023-01-18T06:25:44.148Z,98742.50
2023-01-18T06:28:11.005Z,98748.25
2023-01-18T06:30:38.827Z,98739.16
2023-01-18T06:33:07.202Z,98738.78
2023-01-18T06:35:34.963Z,98748.00
2023-01-18T06:38:05.438Z,98752.09
2023-01-18T06:40:32.263Z,98749.09
2023-01-18T06:42:59.313Z,98756.38
2023-01-18T06:45:26.596Z,98762.75
2023-01-18T06:47:53.558Z,98764.19
2023-01-18T06:50:20.751Z,98764.44
2023-01-18T06:52:47.650Z,98759.31
2023-01-18T06:55:15.493Z,98765.88
2023-01-18T06:57:42.423Z,98772.25
2023-01-18T07:00:10.862Z,98779.41
2023-01-18T07:02:38.208Z,98784.69
2023-01-18T07:05:05.694Z,98789.94
2023-01-18T07:07:33.083Z,98798.94
2023-01-18T07:09:59.925Z,98800.72
2023-01-18T07:12:26.923Z,98800.63
2023-01-18T07:14:53.776Z,98806.72
2023-01-18T07:17:20.579Z,98799.78
2023-01-18T07:19:47.393Z,98810.31
2023-01-18T07:22:14.834Z,98824.69
2023-01-18T07:24:41.703Z,98818.00
2023-01-18T07:27:08.585Z,98815.00
2023-01-18T07:29:35.560Z,98834.75
2023-01-18T07:32:02.855Z,98832.03
2023-01-18T07:34:29.737Z,98827.56
2023-01-18T07:36:56.657Z,98837.16
2023-01-18T07:39:23.623Z,98843.38
2023-01-18T07:41:50.510Z,98871.19
2023-01-18T07:44:17.331Z,98867.72
2023-01-18T07:46:44.328Z,98873.84
2023-01-18T07:49:11.297Z,98878.16
2023-01-18T07:51:38.280Z,98879.81
2023-01-18T07:54:05.633Z,98892.06
2023-01-18T07:56:32.513Z,98884.13
2023-01-18T07:58:59.391Z,98886.88
2023-01-18T08:01:27.281Z,98885.00
2023-01-18T08:03:55.059Z,98886.78
2023-01-18T08:06:26.494Z,98894.44
2023-01-18T08:08:56.286Z,98892.63
2023-01-18T08:11:23.828Z,98897.91
2023-01-18T08:13:52.822Z,98894.31
2023-01-18T08:16:20.403Z,98892.91
2023-01-18T08:18:50.109Z,98889.19
2023-01-18T08:21:17.043Z,98894.31
2023-01-18T08:23:44.071Z,98903.06
2023-01-18T08:26:13.657Z,98900.44
2023-01-18T08:28:41.827Z,98903.06
2023-01-18T08:31:16.666Z,98904.75
2023-01-18T08:33:46.595Z,98897.91
2023-01-18T08:36:17.070Z,98906.56
2023-01-18T08:38:47.520Z,98903.19
2023-01-18T08:41:14.414Z,98913.63
2023-01-18T08:43:41.497Z,98919.59
2023-01-18T08:46:08.933Z,98923.09
2023-01-18T08:48:35.951Z,98927.53
2023-01-18T08:51:03.807Z,98937.13
2023-01-18T08:53:31.988Z,98940.59
2023-01-18T08:55:59.006Z,98940.59
2023-01-18T08:58:26.051Z,98944.91
2023-01-18T09:00:54.345Z,98947.44
2023-01-18T09:03:23.227Z,98951.00
2023-01-18T09:05:51.490Z,98952.56
2023-01-18T09:08:19.899Z,98959.63
2023-01-18T09:10:47.672Z,98964.06
2023-01-18T09:13:14.592Z,98967.44
2023-01-18T09:15:41.783Z,98971.88
2023-01-18T09:18:08.875Z,98975.47
2023-01-18T09:20:36.628Z,98978.81
2023-01-18T09:23:08.543Z,98974.38
2023-01-18T09:25:39.468Z,98972.81
2023-01-18T09:28:06.519Z,98981.34
2023-01-18T09:30:34.986Z,98981.59
2023-01-18T09:33:02.349Z,98992.75
2023-01-18T09:35:29.668Z,99001.50
2023-01-18T09:37:58.241Z,99001.59
2023-01-18T09:40:40.609Z,99015.50
2023-01-18T09:43:21.598Z,99005.94
2023-01-18T09:45:48.645Z,99020.78
2023-01-18T09:48:40.161Z,99014.78
2023-01-18T09:51:20.850Z,99017.41
2023-01-18T09:54:07.157Z,99030.75
2023-01-18T09:56:49.409Z,99042.84
2023-01-18T09:59:36.779Z,99043.78
2023-01-18T10:02:17.939Z,99042.09
2023-01-18T10:04:51.525Z,99050.00
2023-01-18T10:07:20.693Z,99065.59
2023-01-18T10:09:57.669Z,99085.75
2023-01-18T10:12:34.158Z,99093.66
2023-01-18T10:15:24.171Z,99104.22
2023-01-18T10:17:57.009Z,99114.78
2023-01-18T10:20:36.221Z,99130.59
2023-01-18T10:23:09.980Z,99138.50
2023-01-18T10:25:39.887Z,99141.25
2023-01-18T10:28:40.112Z,99144.00
2023-01-18T10:31:41.227Z,99148.34
2023-01-18T10:34:33.483Z,99159.59
2023-01-18T10:37:15.025Z,99170.16
2023-01-18T10:39:51.857Z,99183.34
2023-01-18T10:42:27.607Z,99179.00
2023-01-18T10:44:54.859Z,99170.50
2023-01-18T10:47:24.323Z,99168.94
2023-01-18T10:49:59.304Z,99173.94
2023-01-18T10:52:31.922Z,99178.41
2023-01-18T10:55:07.797Z,99176.00
2023-01-18T10:57:44.420Z,99173.44
2023-01-18T11:00:24.603Z,99176.00
2023-01-18T11:02:53.790Z,99176.34
2023-01-18T11:05:32.456Z,99180.84
2023-01-18T11:08:21.176Z,99185.19
2023-01-18T11:11:03.018Z,99167.66
2023-01-18T11:13:50.006Z,99187.91
2023-01-18T11:16:18.944Z,99190.47
2023-01-18T11:18:58.950Z,99188.03
2023-01-18T11:21:32.373Z,99190.69
2023-01-18T11:24:08.083Z,99189.94
2023-01-18T11:26:35.722Z,99208.41
2023-01-18T11:29:06.125Z,99205.25
2023-01-18T11:31:47.997Z,99227.16
2023-01-18T11:34:35.096Z,99229.94
2023-01-18T11:37:03.457Z,99236.13
2023-01-18T11:39:32.006Z,99242.47
2023-01-18T11:42:17.465Z,99257.47
2023-01-18T11:44:58.974Z,99273.28
2023-01-18T11:47:57.596Z,99261.06
2023-01-18T11:50:46.073Z,99272.53
2023-01-18T11:53:15.950Z,99279.72
2023-01-18T11:55:48.051Z,99269.38
2023-01-18T11:58:26.839Z,99275.63
2023-01-18T12:01:21.992Z,99278.25
2023-01-18T12:04:08.862Z,99276.44
2023-01-18T12:07:03.637Z,99293.44
2023-01-18T12:09:53.263Z,99296.16
2023-01-18T12:12:20.637Z,99292.72
2023-01-18T12:15:11.787Z,99285.63
2023-01-18T12:18:12.881Z,99285.75
2023-01-18T12:21:19.298Z,99281.41
2023-01-18T12:24:11.709Z,99286.91
2023-01-18T12:27:33.831Z,99298.91
2023-01-18T12:30:18.869Z,99296.16
2023-01-18T12:33:18.753Z,99298.91
2023-01-18T12:36:11.571Z,99305.97
2023-01-18T12:38:49.740Z,99314.84
2023-01-18T12:41:49.935Z,99335.16
2023-01-18T12:44:23.003Z,99335.16
2023-01-18T12:46:59.779Z,99344.03
2023-01-18T12:49:32.995Z,99338.13
2023-01-18T12:52:18.102Z,99350.47
2023-01-18T12:54:56.990Z,99355.72
2023-01-18T12:57:26.733Z,99358.47
2023-01-18T13:00:06.526Z,99352.47
2023-01-18T13:02:46.779Z,99349.94
2023-01-18T13:05:19.193Z,99347.28
2023-01-18T13:07:58.856Z,99349.09
2023-01-18T13:10:30.493Z,99345.72
2023-01-18T13:12:59.691Z,99339.59
2023-01-18T13:15:46.687Z,99343.94
2023-01-18T13:18:39.289Z,99345.63
2023-01-18T13:21:35.432Z,99338.66
2023-01-18T13:24:41.541Z,99344.00
2023-01-18T13:27:15.980Z,99353.75
2023-01-18T13:29:46.946Z,99348.47
2023-01-18T13:32:55.662Z,99327.59
2023-01-18T13:35:34.453Z,99351.09
2023-01-18T13:38:13.770Z,99341.50
2023-01-18T13:40:55.292Z,99353.94
2023-01-18T13:43:48.972Z,99345.31
2023-01-18T13:46:26.488Z,99365.41
2023-01-18T13:48:56.879Z,99361.19
2023-01-18T13:51:42.932Z,99352.56
2023-01-18T13:54:15.459Z,99362.38
2023-01-18T13:57:04.607Z,99369.94
2023-01-18T13:59:37.770Z,99383.84
2023-01-18T14:02:37.756Z,99396.81
2023-01-18T14:05:20.457Z,99401.91
2023-01-18T14:07:52.578Z,99410.22
2023-01-18T14:10:23.417Z,99416.13
2023-01-18T14:12:54.423Z,99426.47
2023-01-18T14:15:40.084Z,99426.28
2023-01-18T14:18:29.628Z,99432.28
2023-01-18T14:21:07.905Z,99437.13
2023-01-18T14:23:47.395Z,99448.94
2023-01-18T14:26:17.693Z,99440.72
2023-01-18T14:28:57.810Z,99442.09
2023-01-18T14:31:35.834Z,99453.19
2023-01-18T14:34:36.495Z,99439.69
2023-01-18T14:37:05.868Z,99456.03
2023-01-18T14:39:33.961Z,99456.13
2023-01-18T14:42:05.660Z,99461.59
2023-01-18T14:44:34.182Z,99472.31
2023-01-18T14:47:13.853Z,99481.78
2023-01-18T14:49:50.566Z,99484.97
2023-01-18T14:52:19.406Z,99489.31
2023-01-18T14:54:53.190Z,99496.72
2023-01-18T14:57:22.698Z,99504.84
2023-01-18T14:59:56.005Z,99510.44
2023-01-18T15:02:29.763Z,99512.66
2023-01-18T15:05:18.125Z,99501.72
2023-01-18T15:07:58.644Z,99497.03
2023-01-18T15:10:27.436Z,99498.66
2023-01-18T15:12:59.207Z,99496.22
2023-01-18T15:15:32.595Z,99493.38
2023-01-18T15:18:13.376Z,99501.31
2023-01-18T15:20:52.688Z,99511.66
2023-01-18T15:23:20.190Z,99508.06
2023-01-18T15:25:50.680Z,99514.94
2023-01-18T15:28:23.936Z,99521.66
2023-01-18T15:30:56.277Z,99521.56
2023-01-18T15:33:26.430Z,99523.16
2023-01-18T15:35:59.446Z,99515.38
2023-01-18T15:38:26.781Z,99520.53
2023-01-18T15:41:01.654Z,99532.66
2023-01-18T15:43:36.256Z,99526.53
2023-01-18T15:46:08.201Z,99531.94
2023-01-18T15:48:47.534Z,99521.47
2023-01-18T15:51:15.014Z,99530.03
2023-01-18T15:53:53.622Z,99533.50
2023-01-18T15:56:31.566Z,99547.56
2023-01-18T15:59:01.623Z,99550.19
2023-01-18T16:01:36.960Z,99547.63
2023-01-18T16:04:23.718Z,99550.28
2023-01-18T16:06:51.309Z,99559.03
2023-01-18T16:09:22.327Z,99557.25
2023-01-18T16:11:59.339Z,99563.38
2023-01-18T16:14:32.072Z,99558.19
2023-01-18T16:17:20.862Z,99581.00
2023-01-18T16:19:54.568Z,99570.66
2023-01-18T16:22:52.329Z,99579.94
2023-01-18T16:25:23.764Z,99577.00
2023-01-18T16:27:52.576Z,99585.56
2023-01-18T16:30:29.511Z,99592.22
2023-01-18T16:33:17.359Z,99591.19
2023-01-18T16:35:45.891Z,99599.81
2023-01-18T16:38:16.152Z,99603.22
2023-01-18T16:40:47.081Z,99605.88
2023-01-18T16:43:22.268Z,99608.50
2023-01-18T16:45:51.786Z,99610.38
2023-01-18T16:48:27.096Z,99615.56
2023-01-18T16:50:56.459Z,99625.25
2023-01-18T16:53:23.721Z,99619.22
2023-01-18T16:55:51.175Z,99624.63
2023-01-18T16:58:21.780Z,99625.53
2023-01-18T17:00:54.869Z,99622.06
2023-01-18T17:03:22.047Z,99625.00
2023-01-18T17:05:49.159Z,99627.44
2023-01-18T17:08:16.754Z,99630.09
2023-01-18T17:10:49.627Z,99630.28
2023-01-18T17:13:17.069Z,99618.03
2023-01-18T17:15:45.743Z,99628.38
2023-01-18T17:18:22.907Z,99624.06
2023-01-18T17:20:50.287Z,99633.03
2023-01-18T17:23:18.299Z,99633.84
2023-01-18T17:25:45.854Z,99635.56
2023-01-18T17:28:18.413Z,99638.06
2023-01-18T17:30:48.629Z,99638.84
2023-01-18T17:33:22.822Z,99645.78
2023-01-18T17:35:51.017Z,99642.41
2023-01-18T17:38:24.310Z,99655.22
2023-01-18T17:40:52.298Z,99658.78
2023-01-18T17:43:32.938Z,99658.63
2023-01-18T17:46:06.292Z,99658.63
2023-01-18T17:48:33.578Z,99666.41
2023-01-18T17:51:00.784Z,99669.81
2023-01-18T17:53:28.329Z,99668.78
2023-01-18T17:55:55.560Z,99673.94
2023-01-18T17:58:23.021Z,99679.88
2023-01-18T18:00:50.065Z,99676.19
2023-01-18T18:03:17.610Z,99684.09
2023-01-18T18:05:45.607Z,99677.03
2023-01-18T18:08:12.504Z,99681.34
2023-01-18T18:10:43.641Z,99685.69
2023-01-18T18:13:10.648Z,99681.13
2023-01-18T18:15:37.540Z,99686.13
2023-01-18T18:18:07.405Z,99678.94
2023-01-18T18:20:38.664Z,99680.75
2023-01-18T18:23:07.675Z,99682.31
2023-01-18T18:25:34.815Z,99684.03
2023-01-18T18:28:01.799Z,99698.81
2023-01-18T18:30:29.043Z,99691.84
2023-01-18T18:32:56.047Z,99699.66
2023-01-18T18:35:25.932Z,99693.53
2023-01-18T18:37:54.507Z,99707.47
2023-01-18T18:40:22.112Z,99703.13
2023-01-18T18:43:01.322Z,99705.44
2023-01-18T18:45:31.492Z,99710.09
2023-01-18T18:47:59.082Z,99704.16
2023-01-18T18:50:26.665Z,99699.91
2023-01-18T18:52:54.240Z,99706.97
2023-01-18T18:55:21.350Z,99708.88
2023-01-18T18:57:48.407Z,99716.06
2023-01-18T19:00:16.113Z,99719.63
2023-01-18T19:02:43.343Z,99714.56
2023-01-18T19:05:13.590Z,99718.16
2023-01-18T19:07:42.829Z,99720.03
2023-01-18T19:10:11.825Z,99725.84
2023-01-18T19:12:38.944Z,99725.69
2023-01-18T19:15:06.424Z,99722.03
2023-01-18T19:17:34.601Z,99727.13
2023-01-18T19:20:01.666Z,99731.91
2023-01-18T19:22:28.759Z,99732.47
2023-01-18T19:24:55.981Z,99729.53
2023-01-18T19:27:27.919Z,99738.75
2023-01-18T19:29:57.308Z,99742.88
2023-01-18T19:32:25.427Z,99743.53
2023-01-18T19:34:52.534Z,99737.63
2023-01-18T19:37:20.658Z,99742.44
2023-01-18T19:39:49.100Z,99743.91
2023-01-18T19:42:16.448Z,99752.91
2023-01-18T19:44:44.220Z,99744.47
2023-01-18T19:47:12.740Z,99756.31
2023-01-18T19:49:40.982Z,99752.31
2023-01-18T19:52:09.627Z,99754.63
2023-01-18T19:54:36.715Z,99757.72
2023-01-18T19:57:04.735Z,99758.44
2023-01-18T19:59:31.945Z,99755.53
2023-01-18T20:01:59.569Z,99761.63
2023-01-18T20:04:26.910Z,99759.75
2023-01-18T20:06:54.043Z,99765.84
2023-01-18T20:09:26.908Z,99770.94
2023-01-18T20:12:00.119Z,99773.50
2023-01-18T20:14:40.311Z,99768.94
2023-01-18T20:17:09.893Z,99763.66
2023-01-18T20:19:37.417Z,99767.66
2023-01-18T20:22:04.614Z,99767.56
2023-01-18T20:24:31.715Z,99778.84
2023-01-18T20:27:14.909Z,99772.84
2023-01-18T20:29:43.388Z,99766.69
2023-01-18T20:32:16.633Z,99773.69
2023-01-18T20:34:47.432Z,99779.19
2023-01-18T20:37:19.241Z,99771.97
2023-01-18T20:39:50.730Z,99767.44
2023-01-18T20:42:18.485Z,99774.31
2023-01-18T20:44:49.936Z,99784.06
2023-01-18T20:47:17.156Z,99778.56
2023-01-18T20:49:46.769Z,99781.94
2023-01-18T20:52:15.805Z,99776.66
2023-01-18T20:54:43.236Z,99771.78
2023-01-18T20:57:11.130Z,99782.34
2023-01-18T20:59:38.762Z,99779.59
2023-01-18T21:02:07.111Z,99776.84
2023-01-18T21:04:36.196Z,99777.50
2023-01-18T21:07:07.529Z,99770.72
2023-01-18T21:09:38.211Z,99768.41
2023-01-18T21:12:06.392Z,99770.00
2023-01-18T21:14:34.404Z,99766.28
2023-01-18T21:17:02.908Z,99772.09
2023-01-18T21:19:30.333Z,99767.56
2023-01-18T21:22:00.480Z,99767.25
2023-01-18T21:24:27.573Z,99775.06
2023-01-18T21:26:54.682Z,99769.06
2023-01-18T21:29:21.827Z,99767.34
2023-01-18T21:31:50.590Z,99766.94
2023-01-18T21:34:18.508Z,99765.97
2023-01-18T21:36:45.875Z,99763.31
2023-01-18T21:39:18.981Z,99768.50
2023-01-18T21:42:07.309Z,99763.22
2023-01-18T21:44:53.262Z,99757.81
2023-01-18T21:47:20.467Z,99759.94
2023-01-18T21:50:21.954Z,99762.06
2023-01-18T21:53:07.396Z,99774.63
2023-01-18T21:55:39.553Z,99773.50
2023-01-18T21:58:25.017Z,99774.72
2023-01-18T22:00:54.304Z,99777.31
2023-01-18T22:03:21.715Z,99788.59
2023-01-18T22:05:49.845Z,99777.91
2023-01-18T22:08:17.505Z,99783.69
2023-01-18T22:10:47.857Z,99782.41
2023-01-18T22:13:15.120Z,99787.16
2023-01-18T22:15:42.142Z,99775.19
2023-01-18T22:18:10.195Z,99786.13
2023-01-18T22:20:38.022Z,99787.38
2023-01-18T22:23:05.885Z,99781.47
2023-01-18T22:25:33.269Z,99786.25
2023-01-18T22:28:00.776Z,99793.59
2023-01-18T22:30:30.133Z,99787.13
2023-01-18T22:32:57.476Z,99793.34
2023-01-18T22:35:24.770Z,99795.50
2023-01-18T22:37:52.685Z,99798.44
2023-01-18T22:40:20.036Z,99799.56
2023-01-18T22:42:47.328Z,99803.25
2023-01-18T22:45:14.504Z,99805.44
2023-01-18T22:47:41.499Z,99796.75
2023-01-18T22:50:09.508Z,99801.47
2023-01-18T22:52:36.710Z,99801.66
2023-01-18T22:55:04.110Z,99799.22
2023-01-18T22:57:31.300Z,99808.25
2023-01-18T22:59:58.218Z,99799.66
2023-01-18T23:02:25.423Z,99800.81
2023-01-18T23:04:52.583Z,99794.88
2023-01-18T23:07:19.851Z,99799.50
2023-01-18T23:09:46.911Z,99795.22
2023-01-18T23:12:13.762Z,99793.75
2023-01-18T23:14:59.183Z,99793.91
2023-01-18T23:17:42.491Z,99801.06
2023-01-18T23:20:11.937Z,99811.78
2023-01-18T23:22:40.465Z,99804.19
2023-01-18T23:25:07.797Z,99812.16
2023-01-18T23:27:34.852Z,99813.19
2023-01-18T23:30:02.978Z,99808.94
2023-01-18T23:32:33.025Z,99810.94
2023-01-18T23:35:00.668Z,99806.66
2023-01-18T23:37:28.067Z,99804.25
2023-01-18T23:40:13.391Z,99808.84
2023-01-18T23:42:58.975Z,99811.53
2023-01-18T23:45:44.488Z,99804.66
2023-01-18T23:48:32.780Z,99806.56
2023-01-18T23:51:18.410Z,99804.09
2023-01-18T23:54:03.974Z,99817.44
2023-01-18T23:56:31.433Z,99812.38
2023-01-18T23:58:58.962Z,99821.31
